Roque Gonzales, Brazil
Current Conditions -  °F | °C
As of 9:00 PM on Friday 31 Oct 2014 (Local Time) from SARP Reporting Station
Thunderstorm Thunderstorm  
Wind Chill: 72°   Ceiling: 4000
Heat Index: 72°   Visibility: 3mi
Dew Point: 70°   Wind: 10mph
Humidity: 94%   Direction: 160°SSE
Pressure: 29.85"   Gusts: NA
Location:  28.13°S, 55.03°W
Report Text: SARP 312300Z 16009KT 5000 -TSRA SCT012 OVC040 FEW050CB 22/21 Q1011
Loading
Personal Weather Stations






























Interactive Weather Map
Tropical Storm Tracking
New forecast layout! Learn more

10-Day Weather Forecast

Advertisements
Track Severe Weather on mobile